Time,TemperatureF,DewpointF,PressureIn,WindDirection,WindDirectionDegrees,WindSpeedMPH,WindSpeedGustMPH,Humidity,HourlyPrecipIn,Conditions,Clouds,dailyrainin,SoftwareType,DateUTC
2013-02-21 00:01:00,40.0,36.0,30.06,SW,220,1.0,7.0,84,0.00,,,0.00,,2013-02-21 08:01:00,
2013-02-21 00:11:00,40.0,36.0,30.06,SW,220,1.0,7.0,84,0.00,,,0.00,,2013-02-21 08:11:00,
2013-02-21 00:21:00,40.0,36.0,30.06,WNW,295,2.0,6.0,84,0.00,,,0.00,,2013-02-21 08:21:00,
2013-02-21 00:31:00,40.0,35.0,30.07,WSW,242,1.0,4.0,83,0.00,,,0.00,,2013-02-21 08:31:00,
2013-02-21 00:41:00,40.0,35.0,30.07,WSW,242,1.0,4.0,83,0.00,,,0.00,,2013-02-21 08:41:00,
2013-02-21 00:51:00,40.0,35.0,30.07,WNW,284,2.0,5.0,83,0.00,,,0.00,,2013-02-21 08:51:00,
2013-02-21 01:01:00,41.0,36.0,30.07,West,281,1.0,5.0,81,0.00,,,0.00,,2013-02-21 09:01:00,
2013-02-21 01:11:00,41.0,36.0,30.07,West,281,1.0,5.0,81,0.00,,,0.00,,2013-02-21 09:11:00,
2013-02-21 01:22:00,40.0,35.0,30.07,SW,223,2.0,5.0,81,0.00,,,0.00,,2013-02-21 09:22:00,
2013-02-21 01:31:00,40.0,35.0,30.08,WSW,255,2.0,4.0,81,0.00,,,0.00,,2013-02-21 09:31:00,
2013-02-21 01:41:00,40.0,35.0,30.08,WSW,255,2.0,4.0,81,0.00,,,0.00,,2013-02-21 09:41:00,
2013-02-21 01:51:00,40.0,35.0,30.07,West,259,1.0,4.0,83,0.00,,,0.00,,2013-02-21 09:51:00,
2013-02-21 02:01:00,40.0,35.0,30.07,WSW,240,1.0,4.0,81,0.00,,,0.00,,2013-02-21 10:01:00,
2013-02-21 02:11:00,40.0,35.0,30.07,WSW,240,1.0,4.0,81,0.00,,,0.00,,2013-02-21 10:11:00,
2013-02-21 02:21:00,40.0,35.0,30.07,WSW,240,1.0,4.0,81,0.00,,,0.00,,2013-02-21 10:21:00,
2013-02-21 02:31:00,39.0,34.0,30.07,West,278,1.0,3.0,82,0.00,,,0.00,,2013-02-21 10:31:00,
2013-02-21 02:41:00,39.0,34.0,30.07,West,278,1.0,3.0,82,0.00,,,0.00,,2013-02-21 10:41:00,
2013-02-21 02:51:00,39.0,34.0,30.07,West,261,2.0,4.0,82,0.00,,,0.00,,2013-02-21 10:51:00,
2013-02-21 03:01:00,39.0,34.0,30.07,ENE,76,1.0,5.0,82,0.00,,,0.00,,2013-02-21 11:01:00,
2013-02-21 03:10:00,39.0,34.0,30.07,ENE,76,1.0,5.0,82,0.00,,,0.00,,2013-02-21 11:10:00,
2013-02-21 03:21:00,39.0,34.0,30.07,WSW,242,1.0,5.0,82,0.00,,,0.00,,2013-02-21 11:21:00,
2013-02-21 03:31:00,39.0,34.0,30.07,WNW,292,1.0,5.0,82,0.00,,,0.00,,2013-02-21 11:31:00,
2013-02-21 03:41:00,39.0,34.0,30.07,WNW,292,1.0,5.0,82,0.00,,,0.00,,2013-02-21 11:41:00,
2013-02-21 03:51:00,39.0,34.0,30.07,West,273,2.0,7.0,81,0.00,,,0.00,,2013-02-21 11:51:00,
2013-02-21 04:01:00,38.0,33.0,30.07,WSW,243,1.0,4.0,82,0.00,,,0.00,,2013-02-21 12:01:00,
2013-02-21 04:11:00,38.0,33.0,30.07,WSW,243,1.0,4.0,82,0.00,,,0.00,,2013-02-21 12:11:00,
2013-02-21 04:21:00,38.0,33.0,30.07,West,273,1.0,4.0,82,0.00,,,0.00,,2013-02-21 12:21:00,
2013-02-21 04:32:00,38.0,33.0,30.07,West,267,1.0,4.0,82,0.00,,,0.00,,2013-02-21 12:32:00,
2013-02-21 04:42:00,38.0,33.0,30.07,West,267,1.0,4.0,82,0.00,,,0.00,,2013-02-21 12:42:00,
2013-02-21 04:52:00,38.0,33.0,30.07,SE,126,1.0,3.0,82,0.00,,,0.00,,2013-02-21 12:52:00,
2013-02-21 05:01:00,38.0,33.0,30.08,East,88,0.0,2.0,83,0.00,,,0.00,,2013-02-21 13:01:00,
2013-02-21 05:12:00,38.0,33.0,30.08,East,88,0.0,2.0,83,0.00,,,0.00,,2013-02-21 13:12:00,
2013-02-21 05:22:00,38.0,34.0,30.08,SSW,192,2.0,5.0,84,0.00,,,0.00,,2013-02-21 13:22:00,
2013-02-21 05:31:00,38.0,34.0,30.09,ENE,69,1.0,3.0,84,0.00,,,0.00,,2013-02-21 13:31:00,
2013-02-21 05:41:00,38.0,34.0,30.09,ENE,69,1.0,3.0,84,0.00,,,0.00,,2013-02-21 13:41:00,
2013-02-21 05:51:00,37.0,33.0,30.09,ENE,64,1.0,2.0,85,0.00,,,0.00,,2013-02-21 13:51:00,
2013-02-21 06:02:00,38.0,33.0,30.10,NE,50,0.0,2.0,83,0.00,,,0.00,,2013-02-21 14:02:00,
2013-02-21 06:11:00,38.0,33.0,30.10,NE,50,0.0,2.0,83,0.00,,,0.00,,2013-02-21 14:11:00,
2013-02-21 06:21:00,37.0,32.0,30.10,East,79,1.0,2.0,83,0.00,,,0.00,,2013-02-21 14:21:00,
2013-02-21 06:31:00,37.0,33.0,30.11,SW,229,0.0,2.0,85,0.00,,,0.00,,2013-02-21 14:31:00,
2013-02-21 06:41:00,37.0,33.0,30.11,SW,229,0.0,2.0,85,0.00,,,0.00,,2013-02-21 14:41:00,
2013-02-21 06:52:00,36.0,32.0,30.11,North,355,1.0,2.0,86,0.00,,,0.00,,2013-02-21 14:52:00,
2013-02-21 07:01:00,36.0,33.0,30.11,NNW,334,1.0,2.0,87,0.00,,,0.00,,2013-02-21 15:01:00,
2013-02-21 07:12:00,36.0,33.0,30.11,NNW,334,1.0,2.0,87,0.00,,,0.00,,2013-02-21 15:12:00,
2013-02-21 07:21:00,37.0,33.0,30.11,ENE,67,1.0,3.0,86,0.00,,,0.00,,2013-02-21 15:21:00,
2013-02-21 07:31:00,37.0,33.0,30.12,WNW,293,1.0,4.0,84,0.00,,,0.00,,2013-02-21 15:31:00,
2013-02-21 07:41:00,37.0,33.0,30.12,WNW,293,1.0,4.0,84,0.00,,,0.00,,2013-02-21 15:41:00,
2013-02-21 07:51:00,38.0,33.0,30.13,ESE,107,1.0,3.0,83,0.00,,,0.00,,2013-02-21 15:51:00,
2013-02-21 08:01:00,38.0,33.0,30.14,SE,142,1.0,3.0,81,0.00,,,0.00,,2013-02-21 16:01:00,
2013-02-21 08:12:00,38.0,33.0,30.14,SE,142,1.0,3.0,81,0.00,,,0.00,,2013-02-21 16:12:00,
2013-02-21 08:21:00,39.0,33.0,30.14,WNW,286,1.0,3.0,80,0.00,,,0.00,,2013-02-21 16:21:00,
2013-02-21 08:31:00,41.0,35.0,30.15,WSW,255,1.0,3.0,79,0.00,,,0.00,,2013-02-21 16:31:00,
2013-02-21 08:42:00,42.0,35.0,30.16,WSW,241,1.0,3.0,75,0.00,,,0.00,,2013-02-21 16:42:00,
2013-02-21 08:51:00,42.0,35.0,30.16,WSW,241,1.0,3.0,75,0.00,,,0.00,,2013-02-21 16:51:00,
2013-02-21 09:01:00,44.0,36.0,30.16,WSW,238,1.0,3.0,74,0.00,,,0.00,,2013-02-21 17:01:00,
2013-02-21 09:11:00,44.0,36.0,30.16,WSW,238,1.0,3.0,74,0.00,,,0.00,,2013-02-21 17:11:00,
2013-02-21 09:21:00,45.0,34.0,30.17,East,81,1.0,3.0,64,0.00,,,0.00,,2013-02-21 17:21:00,
2013-02-21 09:32:00,48.0,34.0,30.16,East,100,1.0,5.0,58,0.00,,,0.00,,2013-02-21 17:32:00,
2013-02-21 09:41:00,48.0,34.0,30.16,East,100,1.0,5.0,58,0.00,,,0.00,,2013-02-21 17:41:00,
2013-02-21 09:52:00,49.0,32.0,30.16,East,98,2.0,6.0,52,0.00,,,0.00,,2013-02-21 17:52:00,
2013-02-21 10:01:00,50.0,31.0,30.16,South,187,2.0,8.0,47,0.00,,,0.00,,2013-02-21 18:01:00,
2013-02-21 10:11:00,50.0,31.0,30.16,South,187,2.0,8.0,47,0.00,,,0.00,,2013-02-21 18:11:00,
2013-02-21 10:22:00,51.0,31.0,30.17,NNW,344,1.0,6.0,46,0.00,,,0.00,,2013-02-21 18:22:00,
2013-02-21 10:31:00,53.0,31.0,30.18,SE,134,2.0,6.0,42,0.00,,,0.00,,2013-02-21 18:31:00,
2013-02-21 10:42:00,53.0,31.0,30.18,SE,134,2.0,6.0,42,0.00,,,0.00,,2013-02-21 18:42:00,
2013-02-21 10:51:00,54.0,28.0,30.18,WSW,248,2.0,4.0,36,0.00,,,0.00,,2013-02-21 18:51:00,
2013-02-21 11:01:00,55.0,27.0,30.18,West,276,2.0,4.0,34,0.00,,,0.00,,2013-02-21 19:01:00,
2013-02-21 11:11:00,55.0,27.0,30.18,West,276,2.0,4.0,34,0.00,,,0.00,,2013-02-21 19:11:00,
2013-02-21 11:21:00,55.0,29.0,30.17,SE,126,2.0,6.0,36,0.00,,,0.00,,2013-02-21 19:21:00,
2013-02-21 11:31:00,56.0,32.0,30.18,WNW,288,2.0,8.0,40,0.00,,,0.00,,2013-02-21 19:31:00,
2013-02-21 11:41:00,56.0,32.0,30.18,WNW,288,2.0,8.0,40,0.00,,,0.00,,2013-02-21 19:41:00,
2013-02-21 11:51:00,56.0,32.0,30.18,WNW,288,2.0,8.0,40,0.00,,,0.00,,2013-02-21 19:51:00,
2013-02-21 12:01:00,56.0,32.0,30.18,WNW,288,2.0,8.0,40,0.00,,,0.00,,2013-02-21 20:01:00,
2013-02-21 12:11:00,56.0,32.0,30.18,WNW,288,2.0,8.0,40,0.00,,,0.00,,2013-02-21 20:11:00,